sensor_id;sensor_type;location;lat;lon;timestamp;pressure;altitude;pressure_sealevel;temperature;humidity
77381;BME280;66439;50.106;10.996;2023-05-10T00:00:27;97928.73;;;17.66;41.03
77381;BME280;66439;50.106;10.996;2023-05-10T00:02:44;97926.13;;;17.64;41.03
77381;BME280;66439;50.106;10.996;2023-05-10T00:04:49;97927.02;;;17.63;41.07
77381;BME280;66439;50.106;10.996;2023-05-10T00:07:00;97928.35;;;17.62;41.15
77381;BME280;66439;50.106;10.996;2023-05-10T00:09:10;97928.55;;;17.61;41.19
77381;BME280;66439;50.106;10.996;2023-05-10T00:11:14;97930.36;;;17.59;41.40
77381;BME280;66439;50.106;10.996;2023-05-10T00:13:18;97931.33;;;17.59;41.58
77381;BME280;66439;50.106;10.996;2023-05-10T00:15:28;97925.23;;;17.58;41.45
77381;BME280;66439;50.106;10.996;2023-05-10T00:17:46;97920.80;;;17.57;41.56
77381;BME280;66439;50.106;10.996;2023-05-10T00:19:51;97918.64;;;17.56;41.50
77381;BME280;66439;50.106;10.996;2023-05-10T00:22:00;97922.40;;;17.56;41.64
77381;BME280;66439;50.106;10.996;2023-05-10T00:24:06;97919.21;;;17.54;41.39
77381;BME280;66439;50.106;10.996;2023-05-10T00:26:10;97917.20;;;17.53;41.59
77381;BME280;66439;50.106;10.996;2023-05-10T00:28:14;97916.33;;;17.52;41.50
77381;BME280;66439;50.106;10.996;2023-05-10T00:30:18;97914.92;;;17.50;41.71
77381;BME280;66439;50.106;10.996;2023-05-10T00:32:46;97910.86;;;17.49;41.69
77381;BME280;66439;50.106;10.996;2023-05-10T00:34:51;97910.80;;;17.48;41.74
77381;BME280;66439;50.106;10.996;2023-05-10T00:36:54;97911.44;;;17.47;41.83
77381;BME280;66439;50.106;10.996;2023-05-10T00:38:59;97911.60;;;17.48;42.03
77381;BME280;66439;50.106;10.996;2023-05-10T00:41:05;97909.13;;;17.47;41.99
77381;BME280;66439;50.106;10.996;2023-05-10T00:43:10;97906.16;;;17.47;41.93
77381;BME280;66439;50.106;10.996;2023-05-10T00:45:17;97906.17;;;17.47;42.10
77381;BME280;66439;50.106;10.996;2023-05-10T00:47:42;97904.80;;;17.45;42.12
77381;BME280;66439;50.106;10.996;2023-05-10T00:49:57;97903.49;;;17.45;42.09
77381;BME280;66439;50.106;10.996;2023-05-10T00:52:03;97900.80;;;17.44;42.32
77381;BME280;66439;50.106;10.996;2023-05-10T00:54:12;97901.98;;;17.43;42.32
77381;BME280;66439;50.106;10.996;2023-05-10T00:56:23;97902.02;;;17.42;42.60
77381;BME280;66439;50.106;10.996;2023-05-10T00:58:28;97900.73;;;17.39;42.96
77381;BME280;66439;50.106;10.996;2023-05-10T01:00:33;97901.55;;;17.36;43.02
77381;BME280;66439;50.106;10.996;2023-05-10T01:02:37;97897.91;;;17.34;43.06
77381;BME280;66439;50.106;10.996;2023-05-10T01:04:47;97900.19;;;17.31;43.16
77381;BME280;66439;50.106;10.996;2023-05-10T01:06:53;97899.60;;;17.28;43.16
77381;BME280;66439;50.106;10.996;2023-05-10T01:08:58;97896.92;;;17.24;43.52
77381;BME280;66439;50.106;10.996;2023-05-10T01:11:02;97894.07;;;17.24;43.43
77381;BME280;66439;50.106;10.996;2023-05-10T01:13:08;97895.55;;;17.23;43.54
77381;BME280;66439;50.106;10.996;2023-05-10T01:15:20;97896.23;;;17.21;43.82
77381;BME280;66439;50.106;10.996;2023-05-10T01:17:29;97899.45;;;17.18;43.82
77381;BME280;66439;50.106;10.996;2023-05-10T01:19:43;97897.63;;;17.15;43.98
77381;BME280;66439;50.106;10.996;2023-05-10T01:21:53;97898.70;;;17.11;43.89
77381;BME280;66439;50.106;10.996;2023-05-10T01:34:21;97906.19;;;17.02;44.95
77381;BME280;66439;50.106;10.996;2023-05-10T01:36:32;97906.50;;;17.01;45.12
77381;BME280;66439;50.106;10.996;2023-05-10T01:38:49;97903.83;;;17.01;45.03
77381;BME280;66439;50.106;10.996;2023-05-10T01:43:33;97905.21;;;16.98;45.34
77381;BME280;66439;50.106;10.996;2023-05-10T01:45:46;97906.64;;;16.97;45.55
77381;BME280;66439;50.106;10.996;2023-05-10T01:48:11;97903.25;;;16.90;45.62
77381;BME280;66439;50.106;10.996;2023-05-10T01:50:20;97903.36;;;16.87;45.62
77381;BME280;66439;50.106;10.996;2023-05-10T01:52:30;97904.90;;;16.86;45.78
77381;BME280;66439;50.106;10.996;2023-05-10T01:54:38;97901.86;;;16.84;46.10
77381;BME280;66439;50.106;10.996;2023-05-10T01:56:45;97902.63;;;16.82;46.20
77381;BME280;66439;50.106;10.996;2023-05-10T01:58:55;97905.54;;;16.80;46.36
77381;BME280;66439;50.106;10.996;2023-05-10T02:01:03;97905.30;;;16.77;46.50
77381;BME280;66439;50.106;10.996;2023-05-10T02:03:14;97910.44;;;16.77;46.94
77381;BME280;66439;50.106;10.996;2023-05-10T02:05:28;97909.90;;;16.76;47.17
77381;BME280;66439;50.106;10.996;2023-05-10T02:07:37;97907.36;;;16.75;47.31
77381;BME280;66439;50.106;10.996;2023-05-10T02:09:44;97910.09;;;16.73;47.54
77381;BME280;66439;50.106;10.996;2023-05-10T02:11:53;97912.17;;;16.70;47.68
77381;BME280;66439;50.106;10.996;2023-05-10T02:14:07;97915.83;;;16.67;48.04
77381;BME280;66439;50.106;10.996;2023-05-10T02:16:13;97918.41;;;16.67;48.31
77381;BME280;66439;50.106;10.996;2023-05-10T02:18:18;97913.29;;;16.66;48.57
77381;BME280;66439;50.106;10.996;2023-05-10T02:20:31;97911.95;;;16.63;48.69
77381;BME280;66439;50.106;10.996;2023-05-10T02:22:58;97907.55;;;16.63;49.04
77381;BME280;66439;50.106;10.996;2023-05-10T02:25:04;97907.44;;;16.60;49.16
77381;BME280;66439;50.106;10.996;2023-05-10T02:27:10;97908.61;;;16.60;49.50
77381;BME280;66439;50.106;10.996;2023-05-10T02:29:16;97906.02;;;16.59;49.89
77381;BME280;66439;50.106;10.996;2023-05-10T02:31:24;97904.55;;;16.58;49.99
77381;BME280;66439;50.106;10.996;2023-05-10T02:33:29;97904.92;;;16.58;50.22
77381;BME280;66439;50.106;10.996;2023-05-10T02:35:39;97903.27;;;16.55;50.56
77381;BME280;66439;50.106;10.996;2023-05-10T02:37:46;97906.75;;;16.54;50.67
77381;BME280;66439;50.106;10.996;2023-05-10T02:40:01;97908.60;;;16.53;51.02
77381;BME280;66439;50.106;10.996;2023-05-10T02:42:08;97908.25;;;16.51;51.45
77381;BME280;66439;50.106;10.996;2023-05-10T02:44:14;97906.08;;;16.51;51.71
77381;BME280;66439;50.106;10.996;2023-05-10T02:46:17;97909.86;;;16.48;51.87
77381;BME280;66439;50.106;10.996;2023-05-10T02:48:27;97916.60;;;16.44;52.43
77381;BME280;66439;50.106;10.996;2023-05-10T02:50:33;97915.52;;;16.41;52.43
77381;BME280;66439;50.106;10.996;2023-05-10T02:53:09;97913.43;;;16.38;52.77
77381;BME280;66439;50.106;10.996;2023-05-10T02:55:21;97913.44;;;16.36;52.86
77381;BME280;66439;50.106;10.996;2023-05-10T02:57:32;97914.38;;;16.34;53.22
77381;BME280;66439;50.106;10.996;2023-05-10T02:59:37;97915.10;;;16.33;53.15
77381;BME280;66439;50.106;10.996;2023-05-10T03:01:42;97912.36;;;16.33;53.27
77381;BME280;66439;50.106;10.996;2023-05-10T03:06:25;97905.56;;;16.28;53.27
77381;BME280;66439;50.106;10.996;2023-05-10T03:08:29;97902.92;;;16.22;53.42
77381;BME280;66439;50.106;10.996;2023-05-10T03:10:54;97903.84;;;16.16;53.76
77381;BME280;66439;50.106;10.996;2023-05-10T03:13:25;97901.66;;;16.09;53.85
77381;BME280;66439;50.106;10.996;2023-05-10T03:15:42;97905.56;;;16.08;54.23
77381;BME280;66439;50.106;10.996;2023-05-10T03:17:57;97902.98;;;16.08;54.59
77381;BME280;66439;50.106;10.996;2023-05-10T03:20:10;97902.93;;;16.08;55.09
77381;BME280;66439;50.106;10.996;2023-05-10T03:22:23;97905.56;;;16.09;55.38
77381;BME280;66439;50.106;10.996;2023-05-10T03:24:33;97904.48;;;16.09;55.37
77381;BME280;66439;50.106;10.996;2023-05-10T03:26:38;97903.23;;;16.07;55.64
77381;BME280;66439;50.106;10.996;2023-05-10T03:28:47;97906.20;;;16.05;55.81
77381;BME280;66439;50.106;10.996;2023-05-10T03:30:56;97911.16;;;16.03;56.18
77381;BME280;66439;50.106;10.996;2023-05-10T03:33:07;97911.88;;;16.02;56.35
77381;BME280;66439;50.106;10.996;2023-05-10T03:35:12;97915.31;;;16.02;56.54
77381;BME280;66439;50.106;10.996;2023-05-10T03:37:21;97916.78;;;16.01;56.93
77381;BME280;66439;50.106;10.996;2023-05-10T03:39:26;97916.92;;;15.99;57.52
77381;BME280;66439;50.106;10.996;2023-05-10T03:41:31;97917.04;;;15.98;58.03
77381;BME280;66439;50.106;10.996;2023-05-10T03:43:34;97917.69;;;15.95;58.41
77381;BME280;66439;50.106;10.996;2023-05-10T03:45:42;97914.23;;;15.94;58.73
77381;BME280;66439;50.106;10.996;2023-05-10T03:47:47;97914.95;;;15.93;59.02
77381;BME280;66439;50.106;10.996;2023-05-10T03:49:53;97912.48;;;15.92;59.54
77381;BME280;66439;50.106;10.996;2023-05-10T03:52:06;97914.33;;;15.93;59.73
77381;BME280;66439;50.106;10.996;2023-05-10T03:54:09;97917.16;;;15.93;60.02
77381;BME280;66439;50.106;10.996;2023-05-10T03:56:14;97917.00;;;15.93;60.22
77381;BME280;66439;50.106;10.996;2023-05-10T03:58:18;97917.59;;;15.93;60.55
77381;BME280;66439;50.106;10.996;2023-05-10T04:00:21;97914.98;;;15.94;60.78
77381;BME280;66439;50.106;10.996;2023-05-10T04:02:26;97915.46;;;15.94;61.08
77381;BME280;66439;50.106;10.996;2023-05-10T04:04:30;97920.89;;;15.95;61.27
77381;BME280;66439;50.106;10.996;2023-05-10T04:06:34;97921.48;;;15.90;61.88
77381;BME280;66439;50.106;10.996;2023-05-10T04:08:43;97921.97;;;15.84;62.61
77381;BME280;66439;50.106;10.996;2023-05-10T04:10:48;97923.00;;;15.78;62.94
77381;BME280;66439;50.106;10.996;2023-05-10T04:12:50;97924.68;;;15.76;63.05
77381;BME280;66439;50.106;10.996;2023-05-10T04:14:53;97925.17;;;15.76;63.28
77381;BME280;66439;50.106;10.996;2023-05-10T04:16:57;97925.56;;;15.77;63.59
77381;BME280;66439;50.106;10.996;2023-05-10T04:19:00;97928.96;;;15.78;63.45
77381;BME280;66439;50.106;10.996;2023-05-10T04:21:03;97931.95;;;15.77;63.60
77381;BME280;66439;50.106;10.996;2023-05-10T04:23:08;97934.09;;;15.77;63.68
77381;BME280;66439;50.106;10.996;2023-05-10T04:25:11;97934.14;;;15.76;64.02
77381;BME280;66439;50.106;10.996;2023-05-10T04:27:20;97936.88;;;15.77;64.13
77381;BME280;66439;50.106;10.996;2023-05-10T04:29:33;97936.55;;;15.78;64.16
77381;BME280;66439;50.106;10.996;2023-05-10T04:31:36;97937.48;;;15.80;64.57
77381;BME280;66439;50.106;10.996;2023-05-10T04:33:39;97938.84;;;15.82;64.64
77381;BME280;66439;50.106;10.996;2023-05-10T04:35:43;97941.15;;;15.84;64.87
77381;BME280;66439;50.106;10.996;2023-05-10T04:37:48;97940.77;;;15.86;64.84
77381;BME280;66439;50.106;10.996;2023-05-10T04:39:53;97945.59;;;15.89;64.87
77381;BME280;66439;50.106;10.996;2023-05-10T04:41:57;97944.74;;;15.92;64.81
77381;BME280;66439;50.106;10.996;2023-05-10T04:44:07;97943.34;;;15.94;64.87
77381;BME280;66439;50.106;10.996;2023-05-10T04:46:10;97950.89;;;15.96;65.06
77381;BME280;66439;50.106;10.996;2023-05-10T04:48:13;97947.30;;;15.94;65.09
77381;BME280;66439;50.106;10.996;2023-05-10T04:50:15;97951.57;;;15.93;65.23
77381;BME280;66439;50.106;10.996;2023-05-10T04:52:19;97954.16;;;15.91;65.19
77381;BME280;66439;50.106;10.996;2023-05-10T04:54:22;97955.77;;;15.86;65.35
77381;BME280;66439;50.106;10.996;2023-05-10T04:56:26;97958.32;;;15.85;65.11
77381;BME280;66439;50.106;10.996;2023-05-10T04:58:29;97962.48;;;15.85;65.07
77381;BME280;66439;50.106;10.996;2023-05-10T05:00:34;97969.14;;;15.82;65.25
77381;BME280;66439;50.106;10.996;2023-05-10T05:02:38;97971.53;;;15.82;65.18
77381;BME280;66439;50.106;10.996;2023-05-10T05:04:42;97976.05;;;15.80;65.27
77381;BME280;66439;50.106;10.996;2023-05-10T05:06:45;97973.89;;;15.76;65.42
77381;BME280;66439;50.106;10.996;2023-05-10T05:08:48;97980.64;;;15.74;65.49
77381;BME280;66439;50.106;10.996;2023-05-10T05:10:52;97980.02;;;15.73;65.50
77381;BME280;66439;50.106;10.996;2023-05-10T05:12:56;97987.34;;;15.69;65.52
77381;BME280;66439;50.106;10.996;2023-05-10T05:14:59;97986.64;;;15.63;65.22
77381;BME280;66439;50.106;10.996;2023-05-10T05:17:02;97989.59;;;15.59;65.16
77381;BME280;66439;50.106;10.996;2023-05-10T05:19:06;97988.09;;;15.53;65.44
77381;BME280;66439;50.106;10.996;2023-05-10T05:21:19;97996.25;;;15.50;65.31
77381;BME280;66439;50.106;10.996;2023-05-10T05:23:22;97992.52;;;15.49;65.32
77381;BME280;66439;50.106;10.996;2023-05-10T05:25:28;98001.13;;;15.50;65.46
77381;BME280;66439;50.106;10.996;2023-05-10T05:27:31;98002.27;;;15.51;65.56
77381;BME280;66439;50.106;10.996;2023-05-10T05:29:34;98007.95;;;15.51;65.41
77381;BME280;66439;50.106;10.996;2023-05-10T05:31:38;98012.25;;;15.52;65.59
77381;BME280;66439;50.106;10.996;2023-05-10T05:33:41;98013.19;;;15.53;65.55
77381;BME280;66439;50.106;10.996;2023-05-10T05:35:44;98013.84;;;15.55;65.34
77381;BME280;66439;50.106;10.996;2023-05-10T05:37:50;98014.77;;;15.56;65.34
77381;BME280;66439;50.106;10.996;2023-05-10T05:39:53;98019.73;;;15.55;65.49
77381;BME280;66439;50.106;10.996;2023-05-10T05:41:58;98019.19;;;15.55;65.27
77381;BME280;66439;50.106;10.996;2023-05-10T05:44:01;98022.04;;;15.55;65.45
77381;BME280;66439;50.106;10.996;2023-05-10T05:46:05;98023.69;;;15.55;65.27
77381;BME280;66439;50.106;10.996;2023-05-10T05:48:08;98024.44;;;15.55;65.37
77381;BME280;66439;50.106;10.996;2023-05-10T05:50:10;98023.03;;;15.55;65.21
77381;BME280;66439;50.106;10.996;2023-05-10T05:52:13;98026.89;;;15.54;65.27
77381;BME280;66439;50.106;10.996;2023-05-10T05:54:23;98027.98;;;15.53;65.23
77381;BME280;66439;50.106;10.996;2023-05-10T05:56:43;98028.83;;;15.53;65.34
77381;BME280;66439;50.106;10.996;2023-05-10T05:58:46;98032.50;;;15.54;65.31
77381;BME280;66439;50.106;10.996;2023-05-10T06:00:51;98036.98;;;15.56;65.16
77381;BME280;66439;50.106;10.996;2023-05-10T06:02:56;98036.79;;;15.58;65.36
77381;BME280;66439;50.106;10.996;2023-05-10T06:05:00;98037.86;;;15.61;65.34
77381;BME280;66439;50.106;10.996;2023-05-10T06:07:04;98042.61;;;15.66;65.33
77381;BME280;66439;50.106;10.996;2023-05-10T06:09:08;98043.54;;;15.71;65.41
77381;BME280;66439;50.106;10.996;2023-05-10T06:11:11;98050.13;;;15.73;65.01
77381;BME280;66439;50.106;10.996;2023-05-10T06:13:15;98050.30;;;15.73;64.95
77381;BME280;66439;50.106;10.996;2023-05-10T06:15:18;98050.79;;;15.74;64.71
77381;BME280;66439;50.106;10.996;2023-05-10T06:17:21;98049.23;;;15.74;64.76
77381;BME280;66439;50.106;10.996;2023-05-10T06:19:24;98052.98;;;15.76;64.78
77381;BME280;66439;50.106;10.996;2023-05-10T06:21:30;98054.39;;;15.76;64.88
77381;BME280;66439;50.106;10.996;2023-05-10T06:23:34;98058.77;;;15.75;64.94
77381;BME280;66439;50.106;10.996;2023-05-10T06:25:38;98058.23;;;15.74;65.20
77381;BME280;66439;50.106;10.996;2023-05-10T06:27:41;98066.16;;;15.78;65.17
77381;BME280;66439;50.106;10.996;2023-05-10T06:29:47;98064.78;;;15.81;65.24
77381;BME280;66439;50.106;10.996;2023-05-10T06:31:58;98070.29;;;15.85;65.43
77381;BME280;66439;50.106;10.996;2023-05-10T06:34:01;98071.98;;;15.89;65.47
77381;BME280;66439;50.106;10.996;2023-05-10T06:36:04;98067.08;;;15.92;65.53
77381;BME280;66439;50.106;10.996;2023-05-10T06:38:07;98067.21;;;15.94;65.48
77381;BME280;66439;50.106;10.996;2023-05-10T06:40:11;98069.05;;;15.94;65.73
77381;BME280;66439;50.106;10.996;2023-05-10T06:42:14;98076.45;;;15.96;65.86
77381;BME280;66439;50.106;10.996;2023-05-10T06:44:21;98069.48;;;15.99;65.83
77381;BME280;66439;50.106;10.996;2023-05-10T06:46:26;98076.73;;;16.01;65.55
77381;BME280;66439;50.106;10.996;2023-05-10T06:48:29;98078.87;;;16.01;65.42
77381;BME280;66439;50.106;10.996;2023-05-10T06:50:33;98084.84;;;16.00;65.48
77381;BME280;66439;50.106;10.996;2023-05-10T06:52:39;98086.13;;;16.02;65.07
77381;BME280;66439;50.106;10.996;2023-05-10T06:54:44;98085.16;;;16.03;65.12
77381;BME280;66439;50.106;10.996;2023-05-10T06:56:52;98085.58;;;16.02;64.96
77381;BME280;66439;50.106;10.996;2023-05-10T06:58:56;98087.52;;;16.02;64.95
77381;BME280;66439;50.106;10.996;2023-05-10T07:01:04;98087.85;;;16.02;65.05
77381;BME280;66439;50.106;10.996;2023-05-10T07:03:10;98085.69;;;16.05;64.85
77381;BME280;66439;50.106;10.996;2023-05-10T07:05:13;98087.05;;;16.08;64.86
77381;BME280;66439;50.106;10.996;2023-05-10T07:07:17;98082.84;;;16.10;64.98
77381;BME280;66439;50.106;10.996;2023-05-10T07:09:20;98086.48;;;16.11;65.00
77381;BME280;66439;50.106;10.996;2023-05-10T07:11:24;98088.16;;;16.10;64.65
77381;BME280;66439;50.106;10.996;2023-05-10T07:13:30;98090.66;;;16.09;64.56
77381;BME280;66439;50.106;10.996;2023-05-10T07:15:35;98093.00;;;16.08;64.31
77381;BME280;66439;50.106;10.996;2023-05-10T07:17:38;98095.38;;;16.06;64.23
77381;BME280;66439;50.106;10.996;2023-05-10T07:19:42;98098.50;;;16.04;64.50
77381;BME280;66439;50.106;10.996;2023-05-10T07:21:48;98102.59;;;16.05;64.50
77381;BME280;66439;50.106;10.996;2023-05-10T07:23:52;98100.93;;;16.08;64.44
77381;BME280;66439;50.106;10.996;2023-05-10T07:25:56;98101.92;;;16.09;64.36
77381;BME280;66439;50.106;10.996;2023-05-10T07:28:02;98104.20;;;16.08;64.04
77381;BME280;66439;50.106;10.996;2023-05-10T07:30:07;98104.14;;;16.07;64.05
77381;BME280;66439;50.106;10.996;2023-05-10T07:32:11;98109.76;;;16.07;64.17
77381;BME280;66439;50.106;10.996;2023-05-10T07:34:15;98109.45;;;16.08;64.11
77381;BME280;66439;50.106;10.996;2023-05-10T07:36:17;98108.27;;;16.09;64.09
77381;BME280;66439;50.106;10.996;2023-05-10T07:38:22;98109.48;;;16.13;64.21
77381;BME280;66439;50.106;10.996;2023-05-10T07:40:25;98107.20;;;16.19;63.74
77381;BME280;66439;50.106;10.996;2023-05-10T07:42:29;98107.16;;;16.22;63.55
77381;BME280;66439;50.106;10.996;2023-05-10T07:44:32;98107.27;;;16.24;63.49
77381;BME280;66439;50.106;10.996;2023-05-10T07:46:35;98110.29;;;16.25;63.68
77381;BME280;66439;50.106;10.996;2023-05-10T07:48:39;98106.88;;;16.29;63.38
77381;BME280;66439;50.106;10.996;2023-05-10T07:50:42;98114.54;;;16.34;63.26
77381;BME280;66439;50.106;10.996;2023-05-10T07:52:47;98112.81;;;16.36;63.08
77381;BME280;66439;50.106;10.996;2023-05-10T07:54:50;98112.54;;;16.35;62.84
77381;BME280;66439;50.106;10.996;2023-05-10T07:56:53;98116.70;;;16.35;62.77
77381;BME280;66439;50.106;10.996;2023-05-10T07:59:01;98117.16;;;16.33;62.39
77381;BME280;66439;50.106;10.996;2023-05-10T08:01:07;98114.09;;;16.27;62.60
77381;BME280;66439;50.106;10.996;2023-05-10T08:03:12;98115.61;;;16.26;62.63
77381;BME280;66439;50.106;10.996;2023-05-10T08:05:15;98117.46;;;16.23;62.68
77381;BME280;66439;50.106;10.996;2023-05-10T08:07:21;98122.81;;;16.22;62.66
77381;BME280;66439;50.106;10.996;2023-05-10T08:09:24;98122.37;;;16.24;62.81
77381;BME280;66439;50.106;10.996;2023-05-10T08:11:27;98125.80;;;16.26;62.85
77381;BME280;66439;50.106;10.996;2023-05-10T08:13:31;98127.81;;;16.27;62.72
77381;BME280;66439;50.106;10.996;2023-05-10T08:15:48;98124.80;;;16.34;62.88
77381;BME280;66439;50.106;10.996;2023-05-10T08:17:53;98126.00;;;16.40;62.75
77381;BME280;66439;50.106;10.996;2023-05-10T08:19:57;98128.52;;;16.44;62.66
77381;BME280;66439;50.106;10.996;2023-05-10T08:22:00;98129.67;;;16.48;62.62
77381;BME280;66439;50.106;10.996;2023-05-10T08:24:06;98134.89;;;16.51;62.48
77381;BME280;66439;50.106;10.996;2023-05-10T08:26:09;98136.64;;;16.53;62.21
77381;BME280;66439;50.106;10.996;2023-05-10T08:28:15;98135.14;;;16.56;62.18
77381;BME280;66439;50.106;10.996;2023-05-10T08:30:19;98137.48;;;16.59;62.26
77381;BME280;66439;50.106;10.996;2023-05-10T08:32:23;98136.42;;;16.63;62.22
77381;BME280;66439;50.106;10.996;2023-05-10T08:34:27;98138.05;;;16.68;62.19
77381;BME280;66439;50.106;10.996;2023-05-10T08:36:32;98142.09;;;16.73;61.99
77381;BME280;66439;50.106;10.996;2023-05-10T08:38:37;98144.86;;;16.77;61.61
77381;BME280;66439;50.106;10.996;2023-05-10T08:40:41;98143.79;;;16.82;61.67
77381;BME280;66439;50.106;10.996;2023-05-10T08:42:52;98144.74;;;16.85;61.54
77381;BME280;66439;50.106;10.996;2023-05-10T08:45:20;98146.63;;;16.90;61.31
77381;BME280;66439;50.106;10.996;2023-05-10T08:47:29;98152.81;;;16.98;61.14
77381;BME280;66439;50.106;10.996;2023-05-10T08:49:33;98155.02;;;17.01;60.89
77381;BME280;66439;50.106;10.996;2023-05-10T08:51:44;98157.61;;;17.01;60.38
77381;BME280;66439;50.106;10.996;2023-05-10T08:53:50;98159.05;;;17.01;60.26
77381;BME280;66439;50.106;10.996;2023-05-10T08:55:55;98159.77;;;17.00;60.20
77381;BME280;66439;50.106;10.996;2023-05-10T08:58:04;98162.98;;;17.00;60.27
77381;BME280;66439;50.106;10.996;2023-05-10T09:00:21;98160.39;;;16.99;60.05
77381;BME280;66439;50.106;10.996;2023-05-10T09:02:26;98161.31;;;16.97;60.04
77381;BME280;66439;50.106;10.996;2023-05-10T09:04:30;98159.67;;;17.01;60.15
77381;BME280;66439;50.106;10.996;2023-05-10T09:06:36;98164.02;;;17.04;59.54
77381;BME280;66439;50.106;10.996;2023-05-10T09:08:42;98163.64;;;17.06;59.51
77381;BME280;66439;50.106;10.996;2023-05-10T09:10:46;98166.98;;;17.07;59.66
77381;BME280;66439;50.106;10.996;2023-05-10T09:12:56;98170.33;;;17.10;59.42
77381;BME280;66439;50.106;10.996;2023-05-10T09:15:07;98166.58;;;17.13;59.71
77381;BME280;66439;50.106;10.996;2023-05-10T09:17:13;98169.34;;;17.17;59.95
77381;BME280;66439;50.106;10.996;2023-05-10T09:19:19;98170.71;;;17.24;60.08
77381;BME280;66439;50.106;10.996;2023-05-10T09:21:25;98171.96;;;17.34;59.28
77381;BME280;66439;50.106;10.996;2023-05-10T09:23:43;98174.45;;;17.40;59.00
77381;BME280;66439;50.106;10.996;2023-05-10T09:26:02;98175.19;;;17.45;58.76
77381;BME280;66439;50.106;10.996;2023-05-10T09:28:08;98175.35;;;17.50;58.37
77381;BME280;66439;50.106;10.996;2023-05-10T09:30:26;98176.98;;;17.58;58.06
77381;BME280;66439;50.106;10.996;2023-05-10T09:32:41;98173.89;;;17.62;58.05
77381;BME280;66439;50.106;10.996;2023-05-10T09:34:49;98171.38;;;17.66;57.45
77381;BME280;66439;50.106;10.996;2023-05-10T09:36:56;98170.11;;;17.68;57.35
77381;BME280;66439;50.106;10.996;2023-05-10T09:39:00;98169.80;;;17.69;57.08
77381;BME280;66439;50.106;10.996;2023-05-10T09:41:15;98171.73;;;17.68;57.41
77381;BME280;66439;50.106;10.996;2023-05-10T09:43:20;98175.33;;;17.68;57.56
77381;BME280;66439;50.106;10.996;2023-05-10T09:45:32;98174.70;;;17.65;57.23
77381;BME280;66439;50.106;10.996;2023-05-10T09:47:41;98173.36;;;17.62;57.26
77381;BME280;66439;50.106;10.996;2023-05-10T09:49:50;98173.96;;;17.61;57.20
77381;BME280;66439;50.106;10.996;2023-05-10T09:52:05;98172.83;;;17.60;57.19
77381;BME280;66439;50.106;10.996;2023-05-10T09:54:15;98177.56;;;17.61;57.20
77381;BME280;66439;50.106;10.996;2023-05-10T09:56:34;98179.15;;;17.56;57.26
77381;BME280;66439;50.106;10.996;2023-05-10T09:58:38;98178.11;;;17.49;57.54
77381;BME280;66439;50.106;10.996;2023-05-10T10:00:45;98177.39;;;17.47;57.28
77381;BME280;66439;50.106;10.996;2023-05-10T10:03:00;98178.06;;;17.46;57.14
77381;BME280;66439;50.106;10.996;2023-05-10T10:05:04;98178.67;;;17.44;57.37
77381;BME280;66439;50.106;10.996;2023-05-10T10:07:09;98183.36;;;17.43;57.62
77381;BME280;66439;50.106;10.996;2023-05-10T10:09:13;98181.10;;;17.39;57.89
77381;BME280;66439;50.106;10.996;2023-05-10T10:11:16;98189.63;;;17.35;57.90
77381;BME280;66439;50.106;10.996;2023-05-10T10:13:20;98186.88;;;17.32;58.18
77381;BME280;66439;50.106;10.996;2023-05-10T10:15:23;98189.56;;;17.30;58.01
77381;BME280;66439;50.106;10.996;2023-05-10T10:17:27;98194.84;;;17.30;58.10
77381;BME280;66439;50.106;10.996;2023-05-10T10:19:34;98194.05;;;17.31;58.20
77381;BME280;66439;50.106;10.996;2023-05-10T10:21:39;98194.42;;;17.31;58.46
77381;BME280;66439;50.106;10.996;2023-05-10T10:23:42;98199.05;;;17.31;58.40
77381;BME280;66439;50.106;10.996;2023-05-10T10:25:46;98200.90;;;17.32;58.36
77381;BME280;66439;50.106;10.996;2023-05-10T10:32:33;98201.84;;;17.36;59.07
77381;BME280;66439;50.106;10.996;2023-05-10T10:34:43;98199.27;;;17.38;58.94
77381;BME280;66439;50.106;10.996;2023-05-10T10:36:50;98196.61;;;17.38;58.53
77381;BME280;66439;50.106;10.996;2023-05-10T10:39:10;98197.98;;;17.42;58.53
77381;BME280;66439;50.106;10.996;2023-05-10T10:41:32;98198.39;;;17.46;58.49
77381;BME280;66439;50.106;10.996;2023-05-10T10:43:41;98194.39;;;17.52;58.91
77381;BME280;66439;50.106;10.996;2023-05-10T10:46:15;98193.41;;;17.60;58.75
77381;BME280;66439;50.106;10.996;2023-05-10T10:48:25;98196.46;;;17.71;59.16
77381;BME280;66439;50.106;10.996;2023-05-10T10:50:28;98190.77;;;17.79;59.10
77381;BME280;66439;50.106;10.996;2023-05-10T10:52:36;98190.82;;;17.85;58.69
77381;BME280;66439;50.106;10.996;2023-05-10T10:54:39;98193.17;;;17.90;58.36
77381;BME280;66439;50.106;10.996;2023-05-10T10:57:12;98189.79;;;17.97;58.42
77381;BME280;66439;50.106;10.996;2023-05-10T10:59:27;98191.34;;;18.03;58.24
77381;BME280;66439;50.106;10.996;2023-05-10T11:01:34;98189.80;;;18.08;58.29
77381;BME280;66439;50.106;10.996;2023-05-10T11:06:29;98186.50;;;18.20;57.29
77381;BME280;66439;50.106;10.996;2023-05-10T11:08:41;98187.98;;;18.25;57.36
77381;BME280;66439;50.106;10.996;2023-05-10T11:13:07;98183.89;;;18.32;56.75
77381;BME280;66439;50.106;10.996;2023-05-10T11:15:10;98183.77;;;18.35;56.81
77381;BME280;66439;50.106;10.996;2023-05-10T11:17:34;98183.05;;;18.37;56.64
77381;BME280;66439;50.106;10.996;2023-05-10T11:20:06;98181.79;;;18.39;56.59
77381;BME280;66439;50.106;10.996;2023-05-10T11:22:13;98182.38;;;18.39;56.18
77381;BME280;66439;50.106;10.996;2023-05-10T11:24:22;98180.83;;;18.36;56.07
77381;BME280;66439;50.106;10.996;2023-05-10T11:26:31;98188.54;;;18.37;56.57
77381;BME280;66439;50.106;10.996;2023-05-10T11:28:47;98188.66;;;18.37;56.84
77381;BME280;66439;50.106;10.996;2023-05-10T11:30:51;98189.54;;;18.39;56.63